createdAt,value
2022-10-04T00:00:40.855Z,96.26
2022-10-04T00:01:41.188Z,96.15
2022-10-04T00:02:40.838Z,96.26
2022-10-04T00:03:40.778Z,96.06
2022-10-04T00:04:40.826Z,95.95
2022-10-04T00:05:40.787Z,96.06
2022-10-04T00:06:40.784Z,95.95
2022-10-04T00:07:40.732Z,95.85
2022-10-04T00:08:40.737Z,95.85
2022-10-04T00:09:40.789Z,95.85
2022-10-04T00:10:40.697Z,95.65
2022-10-04T00:11:41.037Z,95.65
2022-10-04T00:12:40.668Z,95.65
2022-10-04T00:13:40.655Z,95.65
2022-10-04T00:14:40.677Z,95.54
2022-10-04T00:15:40.638Z,95.54
2022-10-04T00:16:40.813Z,95.65
2022-10-04T00:17:40.582Z,95.65
2022-10-04T00:18:40.647Z,95.54
2022-10-04T00:19:40.607Z,95.54
2022-10-04T00:20:40.535Z,95.45
2022-10-04T00:21:40.736Z,95.39
2022-10-04T00:22:40.535Z,95.45
2022-10-04T00:23:40.517Z,95.49
2022-10-04T00:24:40.540Z,95.39
2022-10-04T00:25:40.491Z,95.34
2022-10-04T00:26:40.473Z,95.39
2022-10-04T00:27:40.475Z,95.14
2022-10-04T00:28:40.518Z,95.29
2022-10-04T00:29:40.512Z,95.29
2022-10-04T00:30:40.457Z,95.08
2022-10-04T00:31:40.654Z,95.08
2022-10-04T00:32:40.427Z,95.08
2022-10-04T00:33:40.401Z,95.08
2022-10-04T00:34:40.384Z,95.08
2022-10-04T00:35:40.355Z,95.18
2022-10-04T00:36:40.346Z,95.08
2022-10-04T00:37:40.342Z,94.98
2022-10-04T00:38:40.322Z,95.08
2022-10-04T00:39:40.322Z,94.88
2022-10-04T00:40:40.394Z,94.98
2022-10-04T00:41:40.489Z,94.88
2022-10-04T00:42:40.312Z,94.98
2022-10-04T00:43:40.274Z,94.98
2022-10-04T00:44:41.253Z,94.88
2022-10-04T00:45:40.273Z,94.88
2022-10-04T00:46:40.218Z,94.78
2022-10-04T00:47:40.202Z,94.88
2022-10-04T00:48:40.210Z,94.78
2022-10-04T00:49:40.172Z,94.78
2022-10-04T00:50:40.195Z,94.68
2022-10-04T00:51:40.506Z,94.78
2022-10-04T00:52:40.337Z,94.88
2022-10-04T00:53:40.142Z,94.88
2022-10-04T00:54:40.142Z,94.78
2022-10-04T00:55:40.121Z,94.78
2022-10-04T00:56:40.095Z,94.78
2022-10-04T00:57:40.063Z,94.68
2022-10-04T00:58:40.081Z,94.88
2022-10-04T00:59:40.147Z,94.68
2022-10-04T01:00:40.113Z,94.68
2022-10-04T01:01:40.440Z,94.78
2022-10-04T01:02:40.067Z,94.78
2022-10-04T01:03:39.989Z,94.88
2022-10-04T01:04:40.710Z,94.78
2022-10-04T01:05:39.976Z,94.88
2022-10-04T01:06:39.968Z,94.78
2022-10-04T01:07:39.940Z,94.88
2022-10-04T01:08:39.930Z,94.88
2022-10-04T01:09:39.982Z,94.98
2022-10-04T01:10:39.908Z,94.68
2022-10-04T01:11:40.213Z,94.68
2022-10-04T01:12:39.900Z,94.68
2022-10-04T01:13:39.868Z,94.78
2022-10-04T01:14:40.027Z,94.57
2022-10-04T01:15:39.924Z,94.47
2022-10-04T01:16:39.815Z,94.47
2022-10-04T01:17:39.870Z,94.57
2022-10-04T01:18:39.796Z,94.57
2022-10-04T01:19:39.773Z,94.62
2022-10-04T01:20:39.784Z,94.68
2022-10-04T01:21:39.964Z,94.92
2022-10-04T01:22:39.798Z,94.78
2022-10-04T01:23:39.743Z,94.92
2022-10-04T01:24:39.739Z,95.03
2022-10-04T01:25:39.725Z,95.13
2022-10-04T01:26:39.709Z,95.13
2022-10-04T01:27:39.680Z,95.13
2022-10-04T01:28:39.663Z,95.23
2022-10-04T01:29:39.725Z,95.33
2022-10-04T01:30:39.681Z,95.33
2022-10-04T01:31:39.910Z,95.43
2022-10-04T01:32:39.644Z,95.43
2022-10-04T01:33:39.600Z,95.33
2022-10-04T01:34:39.605Z,95.43
2022-10-04T01:35:39.673Z,95.43
2022-10-04T01:36:39.550Z,95.33
2022-10-04T01:37:39.559Z,95.23
2022-10-04T01:38:39.526Z,95.33
2022-10-04T01:39:39.703Z,95.33
2022-10-04T01:40:39.539Z,95.43
2022-10-04T01:41:39.635Z,95.43
2022-10-04T01:42:39.497Z,95.53
2022-10-04T01:43:39.509Z,95.64
2022-10-04T01:44:41.299Z,95.53
2022-10-04T01:45:39.482Z,95.43
2022-10-04T01:46:39.710Z,95.53
2022-10-04T01:47:41.373Z,95.53
2022-10-04T01:48:39.411Z,95.58
2022-10-04T01:49:39.460Z,95.48
2022-10-04T01:50:39.544Z,95.43
2022-10-04T01:51:39.507Z,95.33
2022-10-04T01:52:39.366Z,95.37
2022-10-04T01:53:39.336Z,95.48
2022-10-04T01:54:39.338Z,95.37
2022-10-04T01:55:39.339Z,95.37
2022-10-04T01:56:39.336Z,95.28
2022-10-04T01:57:39.286Z,95.28
2022-10-04T01:58:39.294Z,95.37
2022-10-04T01:59:39.305Z,95.37
2022-10-04T02:00:39.263Z,95.48
2022-10-04T02:01:39.314Z,95.58
2022-10-04T02:02:39.220Z,95.48
2022-10-04T02:03:39.293Z,95.58
2022-10-04T02:04:39.268Z,95.68
2022-10-04T02:05:39.226Z,95.68
2022-10-04T02:06:39.216Z,95.73
2022-10-04T02:07:39.196Z,95.73
2022-10-04T02:08:39.158Z,95.73
2022-10-04T02:09:39.240Z,95.73
2022-10-04T02:10:43.262Z,95.73
2022-10-04T02:11:40.102Z,95.73
2022-10-04T02:12:39.077Z,95.83
2022-10-04T02:13:39.082Z,95.83
2022-10-04T02:14:39.205Z,95.73
2022-10-04T02:15:39.108Z,95.73
2022-10-04T02:16:39.068Z,95.52
2022-10-04T02:17:39.082Z,95.12
2022-10-04T02:18:39.011Z,95.12
2022-10-04T02:19:39.065Z,95.01
2022-10-04T02:20:39.710Z,94.91
2022-10-04T02:21:39.005Z,94.71
2022-10-04T02:22:38.943Z,94.50
2022-10-04T02:23:38.932Z,94.15
2022-10-04T02:24:38.915Z,93.85
2022-10-04T02:25:38.907Z,93.85
2022-10-04T02:26:38.897Z,93.85
2022-10-04T02:27:38.871Z,93.74
2022-10-04T02:28:38.889Z,93.64
2022-10-04T02:29:38.872Z,93.64
2022-10-04T02:30:38.844Z,93.64
2022-10-04T02:31:38.856Z,93.64
2022-10-04T02:32:38.808Z,93.64
2022-10-04T02:33:38.804Z,93.74
2022-10-04T02:34:38.872Z,93.85
2022-10-04T02:35:38.812Z,93.95
2022-10-04T02:36:38.761Z,93.95
2022-10-04T02:37:38.793Z,94.05
2022-10-04T02:38:38.753Z,94.15
2022-10-04T02:39:38.767Z,94.35
2022-10-04T02:40:38.763Z,94.46
2022-10-04T02:41:38.703Z,94.66
2022-10-04T02:42:38.710Z,94.76
2022-10-04T02:43:38.685Z,95.12
2022-10-04T02:44:38.685Z,95.21
2022-10-04T02:45:38.712Z,95.52
2022-10-04T02:46:38.853Z,95.73
2022-10-04T02:47:38.639Z,96.03
2022-10-04T02:48:38.604Z,96.23
2022-10-04T02:49:38.611Z,96.34
2022-10-04T02:50:38.606Z,96.54
2022-10-04T02:51:38.571Z,96.79
2022-10-04T02:52:38.573Z,97.00
2022-10-04T02:53:38.555Z,97.09
2022-10-04T02:54:38.522Z,97.40
2022-10-04T02:55:38.515Z,97.50
2022-10-04T02:56:38.505Z,97.61
2022-10-04T02:57:38.515Z,97.71
2022-10-04T02:58:38.513Z,97.91
2022-10-04T02:59:38.480Z,98.02
2022-10-04T03:00:38.470Z,98.16
2022-10-04T03:01:38.491Z,98.36
2022-10-04T03:02:38.482Z,98.36
2022-10-04T03:03:38.409Z,98.47
2022-10-04T03:04:38.420Z,98.57
2022-10-04T03:05:38.391Z,98.68
2022-10-04T03:06:38.379Z,98.77
2022-10-04T03:07:38.389Z,98.77
2022-10-04T03:08:38.330Z,98.88
2022-10-04T03:09:38.330Z,98.88
2022-10-04T03:10:38.326Z,99.08
2022-10-04T03:11:38.325Z,99.18
2022-10-04T03:12:38.296Z,99.18
2022-10-04T03:13:38.286Z,99.29
2022-10-04T03:14:38.301Z,99.43
2022-10-04T03:15:38.312Z,99.54
2022-10-04T03:16:38.273Z,99.64
2022-10-04T03:17:38.230Z,99.64
2022-10-04T03:18:38.208Z,99.74
2022-10-04T03:19:38.227Z,99.84
2022-10-04T03:20:38.210Z,99.95
2022-10-04T03:21:38.208Z,99.95
2022-10-04T03:22:38.159Z,99.95
2022-10-04T03:23:38.202Z,99.95
2022-10-04T03:24:38.139Z,99.99
2022-10-04T03:25:38.134Z,99.99
2022-10-04T03:26:38.266Z,99.99
2022-10-04T03:27:38.122Z,99.99
2022-10-04T03:28:38.182Z,99.99
2022-10-04T03:29:38.150Z,99.99
2022-10-04T03:30:38.081Z,99.99
2022-10-04T03:31:38.118Z,99.99
2022-10-04T03:32:38.049Z,99.99
2022-10-04T03:33:38.015Z,99.99
2022-10-04T03:34:38.014Z,99.99
2022-10-04T03:35:37.996Z,99.99
2022-10-04T03:36:38.034Z,99.99
2022-10-04T03:37:37.985Z,99.99
2022-10-04T03:38:37.963Z,99.99
2022-10-04T03:39:37.935Z,99.99
2022-10-04T03:40:37.928Z,99.99
2022-10-04T03:41:37.917Z,99.99
2022-10-04T03:42:37.896Z,99.99
2022-10-04T03:43:37.912Z,99.99
2022-10-04T03:44:37.869Z,99.99
2022-10-04T03:45:37.905Z,99.99
2022-10-04T03:46:37.910Z,99.99
2022-10-04T03:47:37.843Z,99.99
2022-10-04T03:48:37.817Z,99.99
2022-10-04T03:49:37.816Z,99.99
2022-10-04T03:50:37.802Z,99.99
2022-10-04T03:51:37.773Z,99.99
2022-10-04T03:52:37.775Z,99.99
2022-10-04T03:53:37.787Z,99.99
2022-10-04T03:54:37.737Z,99.99
2022-10-04T03:55:37.732Z,99.99
2022-10-04T03:56:37.769Z,99.99
2022-10-04T03:57:37.698Z,99.99
2022-10-04T03:58:37.685Z,99.89
2022-10-04T03:59:37.672Z,99.89
2022-10-04T04:00:37.673Z,99.89
2022-10-04T04:01:37.904Z,99.68
2022-10-04T04:02:40.357Z,99.68
2022-10-04T04:03:37.664Z,99.58
2022-10-04T04:04:37.635Z,99.58
2022-10-04T04:05:37.606Z,99.38
2022-10-04T04:06:37.650Z,99.13
2022-10-04T04:07:37.571Z,98.72
2022-10-04T04:08:37.594Z,98.61
2022-10-04T04:09:37.554Z,98.52
2022-10-04T04:10:37.534Z,98.52
2022-10-04T04:11:37.524Z,98.41
2022-10-04T04:12:37.523Z,98.31
2022-10-04T04:13:37.521Z,98.21
2022-10-04T04:14:37.478Z,97.86
2022-10-04T04:15:37.491Z,97.55
2022-10-04T04:16:37.469Z,97.04
2022-10-04T04:17:37.460Z,97.14
2022-10-04T04:18:37.439Z,96.94
2022-10-04T04:19:37.449Z,96.94
2022-10-04T04:20:37.450Z,96.63
2022-10-04T04:21:37.722Z,96.53
2022-10-04T04:22:37.387Z,96.33
2022-10-04T04:23:37.359Z,96.22
2022-10-04T04:24:37.374Z,95.97
2022-10-04T04:25:37.361Z,95.87
2022-10-04T04:26:37.394Z,95.87
2022-10-04T04:27:37.309Z,95.87
2022-10-04T04:28:37.441Z,95.77
2022-10-04T04:29:37.333Z,95.87
2022-10-04T04:30:37.347Z,95.67
2022-10-04T04:31:37.290Z,95.57
2022-10-04T04:32:37.296Z,95.57
2022-10-04T04:33:37.236Z,95.67
2022-10-04T04:34:37.224Z,95.47
2022-10-04T04:35:37.239Z,95.47
2022-10-04T04:36:37.249Z,95.57
2022-10-04T04:37:37.228Z,95.47
2022-10-04T04:38:37.170Z,95.61
2022-10-04T04:39:37.406Z,95.61
2022-10-04T04:40:37.155Z,95.61
2022-10-04T04:41:37.142Z,95.61
2022-10-04T04:42:37.139Z,95.61
2022-10-04T04:43:37.108Z,95.72
2022-10-04T04:44:37.127Z,95.61
2022-10-04T04:45:37.185Z,95.72
2022-10-04T04:46:37.085Z,95.72
2022-10-04T04:47:37.089Z,95.61
2022-10-04T04:48:37.080Z,95.72
2022-10-04T04:49:37.080Z,95.72
2022-10-04T04:50:37.013Z,95.81
2022-10-04T04:51:37.031Z,95.92
2022-10-04T04:52:37.013Z,96.02
2022-10-04T04:53:37.434Z,96.12
2022-10-04T04:54:37.003Z,96.22
2022-10-04T04:56:01.886Z,96.22
2022-10-04T04:56:38.025Z,96.33
2022-10-04T04:57:36.922Z,96.33
2022-10-04T04:58:36.953Z,96.33
2022-10-04T04:59:36.954Z,96.43
2022-10-04T05:00:36.883Z,96.43
2022-10-04T05:01:36.917Z,96.33
2022-10-04T05:02:36.928Z,96.22
2022-10-04T05:03:36.856Z,96.12
2022-10-04T05:04:36.926Z,96.12
2022-10-04T05:05:36.833Z,95.92
2022-10-04T05:06:36.825Z,96.02
2022-10-04T05:07:36.811Z,95.72
2022-10-04T05:08:41.293Z,95.61
2022-10-04T05:09:36.801Z,95.31
2022-10-04T05:10:36.751Z,95.10
2022-10-04T05:11:36.799Z,94.70
2022-10-04T05:12:36.948Z,94.34
2022-10-04T05:13:36.725Z,94.24
2022-10-04T05:14:36.773Z,94.24
2022-10-04T05:15:36.697Z,94.14
2022-10-04T05:16:36.771Z,94.04
2022-10-04T05:17:36.709Z,94.04
2022-10-04T05:18:36.649Z,93.93
2022-10-04T05:19:36.678Z,93.52
2022-10-04T05:20:36.648Z,93.52
2022-10-04T05:21:40.806Z,93.22
2022-10-04T05:22:37.658Z,93.12
2022-10-04T05:23:36.608Z,93.12
2022-10-04T05:24:36.592Z,93.12
2022-10-04T05:25:43.576Z,93.12
2022-10-04T05:26:38.491Z,92.97
2022-10-04T05:27:38.252Z,93.07
2022-10-04T05:28:36.560Z,92.87
2022-10-04T05:29:36.527Z,92.97
2022-10-04T05:30:36.517Z,93.18
2022-10-04T05:31:36.570Z,93.07
2022-10-04T05:32:36.483Z,93.07
2022-10-04T05:33:36.482Z,93.18
2022-10-04T05:34:36.452Z,93.18
2022-10-04T05:35:36.437Z,93.28
2022-10-04T05:36:36.664Z,93.38
2022-10-04T05:37:36.417Z,93.38
2022-10-04T05:38:36.433Z,93.48
2022-10-04T05:39:36.383Z,93.38
2022-10-04T05:40:36.377Z,93.44
2022-10-04T05:41:36.351Z,93.54
2022-10-04T05:42:36.352Z,92.72
2022-10-04T05:43:36.341Z,92.72
2022-10-04T05:44:36.312Z,93.03
2022-10-04T05:45:36.338Z,92.93
2022-10-04T05:46:37.287Z,93.13
2022-10-04T05:47:36.291Z,93.24
2022-10-04T05:48:36.270Z,93.74
2022-10-04T05:49:36.294Z,93.85
2022-10-04T05:50:36.232Z,93.29
2022-10-04T05:51:36.272Z,93.09
2022-10-04T05:52:36.233Z,92.89
2022-10-04T05:53:36.206Z,93.09
2022-10-04T05:54:36.241Z,93.13
2022-10-04T05:55:36.201Z,93.33
2022-10-04T05:56:36.210Z,93.03
2022-10-04T05:57:36.160Z,92.93
2022-10-04T05:58:36.132Z,93.13
2022-10-04T05:59:36.110Z,93.44
2022-10-04T06:00:36.140Z,93.33
2022-10-04T06:01:36.475Z,93.44
2022-10-04T06:02:36.156Z,93.74
2022-10-04T06:03:36.103Z,93.33
2022-10-04T06:04:36.099Z,93.24
2022-10-04T06:05:36.054Z,93.03
2022-10-04T06:06:36.081Z,92.93
2022-10-04T06:07:36.037Z,92.72
2022-10-04T06:08:36.030Z,91.50
2022-10-04T06:09:36.009Z,91.61
2022-10-04T06:10:36.026Z,91.71
2022-10-04T06:11:36.008Z,91.61
2022-10-04T06:12:35.953Z,91.50
2022-10-04T06:13:35.950Z,91.40
2022-10-04T06:14:35.918Z,91.40
2022-10-04T06:15:35.976Z,91.61
2022-10-04T06:16:35.961Z,91.66
2022-10-04T06:17:35.871Z,91.56
2022-10-04T06:18:36.110Z,91.46
2022-10-04T06:19:35.857Z,91.20
2022-10-04T06:20:35.867Z,91.36
2022-10-04T06:21:35.827Z,91.77
2022-10-04T06:22:35.828Z,91.46
2022-10-04T06:23:35.806Z,91.36
2022-10-04T06:24:35.784Z,91.16
2022-10-04T06:25:35.762Z,91.26
2022-10-04T06:26:35.788Z,91.26
2022-10-04T06:27:35.753Z,91.36
2022-10-04T06:28:35.843Z,91.46
2022-10-04T06:29:35.714Z,91.46
2022-10-04T06:30:35.719Z,91.56
2022-10-04T06:31:35.695Z,91.66
2022-10-04T06:32:35.702Z,91.77
2022-10-04T06:33:35.666Z,91.87
2022-10-04T06:34:35.665Z,92.07
2022-10-04T06:35:35.665Z,92.07
2022-10-04T06:36:35.861Z,92.07
2022-10-04T06:37:35.594Z,92.27
2022-10-04T06:38:35.620Z,92.27
2022-10-04T06:39:35.606Z,91.97
2022-10-04T06:40:35.566Z,92.18
2022-10-04T06:41:35.572Z,92.07
2022-10-04T06:42:35.551Z,92.07
2022-10-04T06:43:35.556Z,92.07
2022-10-04T06:44:35.514Z,91.97
2022-10-04T06:45:35.496Z,91.77
2022-10-04T06:46:35.632Z,91.77
2022-10-04T06:47:35.478Z,91.77
2022-10-04T06:48:35.482Z,91.97
2022-10-04T06:49:36.159Z,91.66
2022-10-04T06:50:35.442Z,91.66
2022-10-04T06:51:35.459Z,91.77
2022-10-04T06:52:35.459Z,91.87
2022-10-04T06:53:35.402Z,91.77
2022-10-04T06:54:35.393Z,91.66
2022-10-04T06:55:35.403Z,91.77
2022-10-04T06:56:35.370Z,91.87
2022-10-04T06:57:35.359Z,91.87
2022-10-04T06:58:35.341Z,91.97
2022-10-04T06:59:35.317Z,92.07
2022-10-04T07:00:35.329Z,92.07
2022-10-04T07:01:35.442Z,92.07
2022-10-04T07:02:35.380Z,91.97
2022-10-04T07:03:35.291Z,92.07
2022-10-04T07:04:56.120Z,92.07
2022-10-04T07:05:36.240Z,92.18
2022-10-04T07:06:35.239Z,92.07
2022-10-04T07:07:35.228Z,92.07
2022-10-04T07:08:35.218Z,91.97
2022-10-04T07:09:35.200Z,91.97
2022-10-04T07:10:35.171Z,91.87
2022-10-04T07:11:35.183Z,91.77
2022-10-04T07:12:35.157Z,91.62
2022-10-04T07:13:35.136Z,91.72
2022-10-04T07:14:35.152Z,92.13
2022-10-04T07:15:35.161Z,91.31
2022-10-04T07:16:35.147Z,91.42
2022-10-04T07:17:35.125Z,91.01
2022-10-04T07:18:35.096Z,91.22
2022-10-04T07:19:35.118Z,91.31
2022-10-04T07:20:35.094Z,91.27
2022-10-04T07:21:35.026Z,91.07
2022-10-04T07:22:35.025Z,90.56
2022-10-04T07:23:34.995Z,90.66
2022-10-04T07:24:35.004Z,90.86
2022-10-04T07:25:34.983Z,90.97
2022-10-04T07:26:35.006Z,91.17
2022-10-04T07:27:34.964Z,91.07
2022-10-04T07:28:35.127Z,90.86
2022-10-04T07:29:38.755Z,91.17
2022-10-04T07:30:36.011Z,91.38
2022-10-04T07:31:34.896Z,91.48
2022-10-04T07:32:34.903Z,91.38
2022-10-04T07:33:34.895Z,91.58
2022-10-04T07:34:34.881Z,91.68
2022-10-04T07:35:34.858Z,91.78
2022-10-04T07:36:34.864Z,91.68
2022-10-04T07:37:34.841Z,91.27
2022-10-04T07:38:34.815Z,91.38
2022-10-04T07:39:34.807Z,91.83
2022-10-04T07:40:34.793Z,91.78
2022-10-04T07:41:34.785Z,91.38
2022-10-04T07:42:34.772Z,91.48
2022-10-04T07:43:34.749Z,91.58
2022-10-04T07:44:34.752Z,91.27
2022-10-04T07:45:34.725Z,91.72
2022-10-04T07:46:34.769Z,92.03
2022-10-04T07:47:34.713Z,91.88
2022-10-04T07:48:34.710Z,91.78
2022-10-04T07:49:34.676Z,90.97
2022-10-04T07:50:34.659Z,91.38
2022-10-04T07:51:34.649Z,91.58
2022-10-04T07:52:34.639Z,91.68
2022-10-04T07:53:34.667Z,91.58
2022-10-04T07:54:34.650Z,91.38
2022-10-04T07:55:34.684Z,91.17
2022-10-04T07:56:34.608Z,90.97
2022-10-04T07:57:34.606Z,90.66
2022-10-04T07:58:34.583Z,91.11
2022-10-04T07:59:34.616Z,91.38
2022-10-04T08:00:34.531Z,91.38
2022-10-04T08:01:34.582Z,91.38
2022-10-04T08:02:34.616Z,91.17
2022-10-04T08:03:34.543Z,91.07
2022-10-04T08:04:34.489Z,90.77
2022-10-04T08:05:34.574Z,90.77
2022-10-04T08:06:34.458Z,90.86
2022-10-04T08:07:34.442Z,90.86
2022-10-04T08:08:34.444Z,90.97
2022-10-04T08:09:34.435Z,90.46
2022-10-04T08:10:34.429Z,89.85
2022-10-04T08:11:34.400Z,90.16
2022-10-04T08:12:34.438Z,90.31
2022-10-04T08:13:34.382Z,90.01
2022-10-04T08:14:34.431Z,89.66
2022-10-04T08:15:34.466Z,89.26
2022-10-04T08:16:34.318Z,88.91
2022-10-04T08:17:34.289Z,87.89
2022-10-04T08:18:34.299Z,87.69
2022-10-04T08:19:34.278Z,87.59
2022-10-04T08:20:34.356Z,87.49
2022-10-04T08:21:34.268Z,87.14
2022-10-04T08:22:34.250Z,86.74
2022-10-04T08:23:34.259Z,86.49
2022-10-04T08:24:34.229Z,85.98
2022-10-04T08:25:34.208Z,85.88
2022-10-04T08:26:34.204Z,85.58
2022-10-04T08:27:34.189Z,85.27
2022-10-04T08:28:34.255Z,85.72
2022-10-04T08:29:34.145Z,86.22
2022-10-04T08:30:34.164Z,86.02
2022-10-04T08:31:34.212Z,86.33
2022-10-04T08:32:34.117Z,86.63
2022-10-04T08:33:34.116Z,86.74
2022-10-04T08:34:34.098Z,86.53
2022-10-04T08:35:34.057Z,86.33
2022-10-04T08:36:34.079Z,86.53
2022-10-04T08:37:34.046Z,86.33
2022-10-04T08:38:34.064Z,86.22
2022-10-04T08:39:35.456Z,86.08
2022-10-04T08:40:34.028Z,85.88
2022-10-04T08:41:33.999Z,85.68
2022-10-04T08:42:33.974Z,85.98
2022-10-04T08:43:33.979Z,85.68
2022-10-04T08:44:33.946Z,85.13
2022-10-04T08:45:33.943Z,84.42
2022-10-04T08:46:33.988Z,84.42
2022-10-04T08:47:33.916Z,84.01
2022-10-04T08:48:33.901Z,84.12
2022-10-04T08:49:33.885Z,84.12
2022-10-04T08:50:33.863Z,83.77
2022-10-04T08:51:33.887Z,83.26
2022-10-04T08:52:33.864Z,83.00
2022-10-04T08:53:33.835Z,83.75
2022-10-04T08:54:33.844Z,84.16
2022-10-04T08:55:33.805Z,84.26
2022-10-04T08:56:33.845Z,84.42
2022-10-04T08:57:33.785Z,84.32
2022-10-04T08:58:33.783Z,83.71
2022-10-04T08:59:33.775Z,84.01
2022-10-04T09:00:33.754Z,84.12
2022-10-04T09:01:33.774Z,84.01
2022-10-04T09:02:33.784Z,83.71
2022-10-04T09:03:33.713Z,83.81
2022-10-04T09:04:33.699Z,83.61
2022-10-04T09:05:33.683Z,83.51
2022-10-04T09:06:33.692Z,83.51
2022-10-04T09:07:33.658Z,83.40
2022-10-04T09:08:33.632Z,83.17
2022-10-04T09:09:33.650Z,82.96
2022-10-04T09:10:33.614Z,82.31
2022-10-04T09:11:33.608Z,82.11
2022-10-04T09:12:33.611Z,81.71
2022-10-04T09:13:33.581Z,81.81
2022-10-04T09:14:33.573Z,81.60
2022-10-04T09:15:33.587Z,81.71
2022-10-04T09:16:33.553Z,81.60
2022-10-04T09:17:33.522Z,81.30
2022-10-04T09:18:33.532Z,80.99
2022-10-04T09:19:33.523Z,81.30
2022-10-04T09:20:38.851Z,81.40
2022-10-04T09:21:34.483Z,80.90
2022-10-04T09:22:33.490Z,80.99
2022-10-04T09:23:33.513Z,80.93
2022-10-04T09:24:33.484Z,81.34
2022-10-04T09:25:33.459Z,81.10
2022-10-04T09:26:33.507Z,81.34
2022-10-04T09:27:54.057Z,81.64
2022-10-04T09:28:34.448Z,81.74
2022-10-04T09:29:33.374Z,82.05
2022-10-04T09:30:33.357Z,82.15
2022-10-04T09:31:33.384Z,82.29
2022-10-04T09:32:33.363Z,82.39
2022-10-04T09:33:33.320Z,82.25
2022-10-04T09:34:37.267Z,81.99
2022-10-04T09:35:33.289Z,82.19
2022-10-04T09:36:33.369Z,82.59
2022-10-04T09:37:33.273Z,82.80
2022-10-04T09:38:33.245Z,82.39
2022-10-04T09:39:33.225Z,82.59
2022-10-04T09:40:33.198Z,82.90
2022-10-04T09:41:33.212Z,83.17
2022-10-04T09:42:33.209Z,83.17
2022-10-04T09:43:33.169Z,83.06
2022-10-04T09:44:33.241Z,82.96
2022-10-04T09:45:33.159Z,82.92
2022-10-04T09:46:33.161Z,82.21
2022-10-04T09:47:33.136Z,82.31
2022-10-04T09:48:33.119Z,82.21
2022-10-04T09:49:33.114Z,82.42
2022-10-04T09:50:33.176Z,82.62
2022-10-04T09:51:33.243Z,82.68
2022-10-04T09:52:33.063Z,82.68
2022-10-04T09:53:33.038Z,82.48
2022-10-04T09:54:33.037Z,82.58
2022-10-04T09:55:33.037Z,82.58
2022-10-04T09:56:33.007Z,82.17
2022-10-04T09:57:32.997Z,82.28
2022-10-04T09:58:32.983Z,82.17
2022-10-04T09:59:32.985Z,82.38
2022-10-04T10:00:32.952Z,82.17
2022-10-04T10:01:33.010Z,81.77
2022-10-04T10:02:32.974Z,82.17
2022-10-04T10:03:32.915Z,82.89
2022-10-04T10:04:32.906Z,83.03
2022-10-04T10:05:32.923Z,82.98
2022-10-04T10:06:32.876Z,82.58
2022-10-04T10:07:32.867Z,82.38
2022-10-04T10:08:32.859Z,82.58
2022-10-04T10:09:32.826Z,82.58
2022-10-04T10:10:32.866Z,82.38
2022-10-04T10:11:32.835Z,82.17
2022-10-04T10:12:32.849Z,81.67
2022-10-04T10:13:32.884Z,81.37
2022-10-04T10:14:32.846Z,81.46
2022-10-04T10:15:32.984Z,81.02
2022-10-04T10:16:32.812Z,81.32
2022-10-04T10:17:32.780Z,81.32
2022-10-04T10:18:32.809Z,80.52
2022-10-04T10:19:32.783Z,80.01
2022-10-04T10:20:32.703Z,80.01
2022-10-04T10:21:32.693Z,80.01
2022-10-04T10:22:32.691Z,79.77
2022-10-04T10:23:32.667Z,79.57
2022-10-04T10:24:32.652Z,79.57
2022-10-04T10:25:32.632Z,79.67
2022-10-04T10:26:32.617Z,79.36
2022-10-04T10:27:32.630Z,79.67
2022-10-04T10:28:32.633Z,79.97
2022-10-04T10:29:32.582Z,80.07
2022-10-04T10:30:32.581Z,80.07
2022-10-04T10:31:32.622Z,79.83
2022-10-04T10:32:32.571Z,80.04
2022-10-04T10:33:32.580Z,79.13
2022-10-04T10:34:32.524Z,78.96
2022-10-04T10:35:32.514Z,78.96
2022-10-04T10:36:32.493Z,78.92
2022-10-04T10:37:32.506Z,78.72
2022-10-04T10:38:32.489Z,78.72
2022-10-04T10:39:32.483Z,78.68
2022-10-04T10:40:32.438Z,78.38
2022-10-04T10:41:32.422Z,77.87
2022-10-04T10:42:32.411Z,77.67
2022-10-04T10:43:32.433Z,77.87
2022-10-04T10:44:32.374Z,77.97
2022-10-04T10:45:32.379Z,78.08
2022-10-04T10:46:32.393Z,78.38
2022-10-04T10:47:32.353Z,78.31
2022-10-04T10:48:32.361Z,78.92
2022-10-04T10:49:32.352Z,79.13
2022-10-04T10:50:32.303Z,79.02
2022-10-04T10:51:32.319Z,78.52
2022-10-04T10:52:32.291Z,78.92
2022-10-04T10:53:32.294Z,79.02
2022-10-04T10:54:32.269Z,78.92
2022-10-04T10:55:32.249Z,78.92
2022-10-04T10:56:32.234Z,78.99
2022-10-04T10:57:32.201Z,78.58
2022-10-04T10:58:32.220Z,78.28
2022-10-04T10:59:32.171Z,78.31
2022-10-04T11:00:32.178Z,78.52
2022-10-04T11:01:32.260Z,78.42
2022-10-04T11:02:48.067Z,78.62
2022-10-04T11:03:33.315Z,78.58
2022-10-04T11:04:32.122Z,78.58
2022-10-04T11:05:32.121Z,78.38
2022-10-04T11:06:32.102Z,77.77
2022-10-04T11:07:32.103Z,77.77
2022-10-04T11:08:32.132Z,77.37
2022-10-04T11:09:32.067Z,77.97
2022-10-04T11:10:32.049Z,77.97
2022-10-04T11:11:32.022Z,77.67
2022-10-04T11:12:32.018Z,77.47
2022-10-04T11:13:32.029Z,77.91
2022-10-04T11:14:31.989Z,78.11
2022-10-04T11:15:32.006Z,78.42
2022-10-04T11:16:31.978Z,78.92
2022-10-04T11:17:31.948Z,78.62
2022-10-04T11:18:32.016Z,78.92
2022-10-04T11:19:31.956Z,78.88
2022-10-04T11:20:31.910Z,78.58
2022-10-04T11:21:31.899Z,77.77
2022-10-04T11:22:36.045Z,78.38
2022-10-04T11:23:32.884Z,77.94
2022-10-04T11:24:31.850Z,77.64
2022-10-04T11:25:43.871Z,77.43
2022-10-04T11:26:31.845Z,77.53
2022-10-04T11:27:33.547Z,77.23
2022-10-04T11:28:31.830Z,77.53
2022-10-04T11:29:31.784Z,77.53
2022-10-04T11:30:31.763Z,77.53
2022-10-04T11:31:31.801Z,76.93
2022-10-04T11:32:31.744Z,76.62
2022-10-04T11:33:31.736Z,76.82
2022-10-04T11:34:31.715Z,76.42
2022-10-04T11:35:31.701Z,75.88
2022-10-04T11:36:31.734Z,75.37
2022-10-04T11:37:31.705Z,74.97
2022-10-04T11:38:31.692Z,75.37
2022-10-04T11:39:31.683Z,75.48
2022-10-04T11:40:31.695Z,75.13
2022-10-04T11:41:31.668Z,74.63
2022-10-04T11:42:31.625Z,74.73
2022-10-04T11:43:31.606Z,75.27
2022-10-04T11:44:31.584Z,75.48
2022-10-04T11:45:31.593Z,75.37
2022-10-04T11:46:31.650Z,75.37
2022-10-04T11:47:31.545Z,75.68
2022-10-04T11:48:31.552Z,75.07
2022-10-04T11:49:31.534Z,74.87
2022-10-04T11:50:31.516Z,75.27
2022-10-04T11:51:31.536Z,75.24
2022-10-04T11:52:31.502Z,75.13
2022-10-04T11:53:31.488Z,74.66
2022-10-04T11:54:31.465Z,74.57
2022-10-04T11:55:31.447Z,74.77
2022-10-04T11:56:31.436Z,74.97
2022-10-04T11:57:31.430Z,75.37
2022-10-04T11:58:31.409Z,75.57
2022-10-04T11:59:31.401Z,75.78
2022-10-04T12:00:31.404Z,75.78
2022-10-04T12:01:31.392Z,75.78
2022-10-04T12:02:31.381Z,75.78
2022-10-04T12:03:31.407Z,75.48
2022-10-04T12:04:31.365Z,75.10
2022-10-04T12:05:31.318Z,75.51
2022-10-04T12:06:31.300Z,75.61
2022-10-04T12:07:31.301Z,75.51
2022-10-04T12:08:31.291Z,75.41
2022-10-04T12:09:31.282Z,75.51
2022-10-04T12:10:31.242Z,74.60
2022-10-04T12:11:31.282Z,74.40
2022-10-04T12:12:31.219Z,74.40
2022-10-04T12:13:31.224Z,74.37
2022-10-04T12:14:31.194Z,74.26
2022-10-04T12:15:31.212Z,73.72
2022-10-04T12:16:31.267Z,73.02
2022-10-04T12:17:31.176Z,72.78
2022-10-04T12:18:31.179Z,72.27
2022-10-04T12:19:31.162Z,72.27
2022-10-04T12:20:31.120Z,72.38
2022-10-04T12:21:31.111Z,71.77
2022-10-04T12:22:31.122Z,71.97
2022-10-04T12:23:31.092Z,71.77
2022-10-04T12:24:31.090Z,72.11
2022-10-04T12:25:31.349Z,72.27
2022-10-04T12:26:31.036Z,72.38
2022-10-04T12:27:31.029Z,72.38
2022-10-04T12:28:31.105Z,72.48
2022-10-04T12:29:31.038Z,72.48
2022-10-04T12:30:30.999Z,72.48
2022-10-04T12:31:31.084Z,72.91
2022-10-04T12:32:31.006Z,72.81
2022-10-04T12:33:30.970Z,72.68
2022-10-04T12:34:30.941Z,72.27
2022-10-04T12:35:30.938Z,72.27
2022-10-04T12:36:30.910Z,72.27
2022-10-04T12:37:30.918Z,72.04
2022-10-04T12:38:30.910Z,71.84
2022-10-04T12:39:30.900Z,71.00
2022-10-04T12:40:30.882Z,70.49
2022-10-04T12:41:30.879Z,70.56
2022-10-04T12:42:32.652Z,69.75
2022-10-04T12:43:30.840Z,69.65
2022-10-04T12:44:30.798Z,68.31
2022-10-04T12:45:30.832Z,68.11
2022-10-04T12:46:30.790Z,68.11
2022-10-04T12:47:30.770Z,68.61
2022-10-04T12:48:30.777Z,67.91
2022-10-04T12:49:30.752Z,68.11
2022-10-04T12:50:30.759Z,68.51
2022-10-04T12:51:30.737Z,68.81
2022-10-04T12:52:30.741Z,68.71